createdAt,value
2022-09-19T00:02:45.008Z,86.24
2022-09-19T00:12:51.364Z,86.22
2022-09-19T00:23:14.527Z,86.52
2022-09-19T00:33:22.282Z,86.66
2022-09-19T00:43:46.820Z,86.94
2022-09-19T00:53:53.221Z,87.10
2022-09-19T01:03:58.855Z,87.29
2022-09-19T01:14:15.285Z,87.63
2022-09-19T01:24:45.177Z,87.65
2022-09-19T01:34:54.851Z,87.64
2022-09-19T01:45:00.459Z,87.48
2022-09-19T01:55:13.547Z,87.32
2022-09-19T02:05:28.479Z,86.96
2022-09-19T02:15:38.126Z,86.98
2022-09-19T02:25:47.065Z,86.65
2022-09-19T02:35:57.444Z,86.36
2022-09-19T02:46:09.073Z,86.43
2022-09-19T02:56:17.409Z,86.38
2022-09-19T03:06:28.167Z,86.15
2022-09-19T03:16:36.438Z,86.10
2022-09-19T03:26:42.046Z,86.05
2022-09-19T03:36:48.777Z,86.14
2022-09-19T03:46:54.388Z,85.95
2022-09-19T03:57:00.222Z,85.85
2022-09-19T04:07:07.114Z,85.80
2022-09-19T04:17:23.402Z,85.80
2022-09-19T04:27:29.324Z,85.64
2022-09-19T04:37:34.982Z,85.60
2022-09-19T04:47:41.618Z,85.50
2022-09-19T04:57:47.222Z,85.25
2022-09-19T05:07:52.854Z,85.25
2022-09-19T05:17:59.241Z,85.19
2022-09-19T05:28:07.338Z,84.57
2022-09-19T05:38:12.978Z,84.35
2022-09-19T05:48:19.116Z,84.06
2022-09-19T05:58:25.583Z,83.99
2022-09-19T06:08:31.497Z,83.59
2022-09-19T06:18:37.182Z,82.03
2022-09-19T06:28:43.222Z,81.02
2022-09-19T06:38:48.927Z,80.64
2022-09-19T06:48:54.559Z,79.86
2022-09-19T06:59:00.211Z,79.12
2022-09-19T07:09:07.815Z,78.13
2022-09-19T07:19:13.587Z,78.18
2022-09-19T07:29:19.320Z,77.65
2022-09-19T07:39:24.927Z,77.12
2022-09-19T07:49:30.546Z,77.35
2022-09-19T07:59:36.230Z,77.17
2022-09-19T08:09:41.914Z,76.53
2022-09-19T08:19:47.774Z,75.97
2022-09-19T08:29:53.434Z,75.28
2022-09-19T08:40:16.693Z,74.21
2022-09-19T08:50:27.066Z,73.30
2022-09-19T09:00:39.327Z,70.74
2022-09-19T09:10:54.744Z,67.31
2022-09-19T09:21:05.443Z,66.65
2022-09-19T09:31:19.094Z,66.66
2022-09-19T09:41:50.689Z,66.21
2022-09-19T09:52:10.669Z,64.43
2022-09-19T10:02:44.084Z,64.06
2022-09-19T10:13:01.563Z,64.24
2022-09-19T10:23:13.953Z,63.87
2022-09-19T10:33:31.954Z,62.95
2022-09-19T10:43:43.418Z,62.88
2022-09-19T10:53:54.962Z,62.37
2022-09-19T11:04:06.870Z,62.21
2022-09-19T11:14:19.465Z,62.85
2022-09-19T11:24:56.185Z,63.14
2022-09-19T11:35:17.554Z,63.28
2022-09-19T11:45:32.881Z,63.62
2022-09-19T11:55:45.955Z,62.89
2022-09-19T12:06:06.006Z,62.99
2022-09-19T12:16:23.348Z,63.20
2022-09-19T12:26:36.227Z,63.41
2022-09-19T12:36:50.310Z,64.38
2022-09-19T12:47:01.643Z,65.18
2022-09-19T12:57:14.133Z,66.59
2022-09-19T13:07:31.316Z,67.46
2022-09-19T13:17:55.935Z,67.23
2022-09-19T13:28:30.662Z,67.33
2022-09-19T13:38:42.766Z,67.35
2022-09-19T13:48:55.334Z,67.59
2022-09-19T13:59:25.697Z,68.20
2022-09-19T14:20:43.042Z,69.80
2022-09-19T14:31:30.061Z,70.49
2022-09-19T14:42:06.582Z,71.84
2022-09-19T14:52:18.670Z,73.19
2022-09-19T15:02:28.804Z,74.19
2022-09-19T15:12:37.483Z,75.25
2022-09-19T15:22:52.674Z,76.49
2022-09-19T15:33:01.430Z,77.29
2022-09-19T15:43:12.712Z,78.16
2022-09-19T15:53:23.703Z,78.39
2022-09-19T16:03:29.530Z,79.15
2022-09-19T16:13:40.111Z,79.68
2022-09-19T16:23:49.282Z,80.31
2022-09-19T16:33:57.924Z,80.89
2022-09-19T16:44:06.160Z,81.61
2022-09-19T16:54:14.307Z,82.42
2022-09-19T17:04:21.286Z,83.07
2022-09-19T17:14:27.233Z,83.36
2022-09-19T17:24:33.177Z,83.74
2022-09-19T17:34:39.123Z,84.02
2022-09-19T17:44:45.997Z,84.26
2022-09-19T17:54:52.027Z,84.70
2022-09-19T18:04:57.840Z,85.11
2022-09-19T18:15:03.581Z,85.46
2022-09-19T18:25:15.851Z,85.54
2022-09-19T18:35:22.203Z,85.93
2022-09-19T18:45:28.120Z,86.18
2022-09-19T18:55:35.669Z,86.22
2022-09-19T19:05:46.235Z,86.59
2022-09-19T19:15:51.884Z,86.87
2022-09-19T19:25:57.695Z,87.15
2022-09-19T19:36:06.112Z,87.06
2022-09-19T19:46:14.793Z,87.42
2022-09-19T19:56:23.673Z,87.74
2022-09-19T20:06:32.267Z,87.88
2022-09-19T20:16:40.227Z,88.06
2022-09-19T20:26:46.400Z,88.26
2022-09-19T20:36:52.045Z,88.59
2022-09-19T20:46:57.907Z,88.63
2022-09-19T20:57:03.675Z,88.69
2022-09-19T21:07:09.410Z,88.82
2022-09-19T21:17:15.158Z,88.93
2022-09-19T21:27:21.660Z,89.20
2022-09-19T21:37:27.542Z,89.26
2022-09-19T21:47:33.548Z,89.64
2022-09-19T21:57:39.330Z,89.64
2022-09-19T22:07:45.103Z,89.68
2022-09-19T22:17:50.699Z,89.65
2022-09-19T22:27:58.172Z,89.89
2022-09-19T22:38:03.827Z,89.70
2022-09-19T22:48:09.451Z,89.54
2022-09-19T22:58:15.731Z,89.81
2022-09-19T23:08:21.343Z,89.69
2022-09-19T23:18:27.132Z,89.59
2022-09-19T23:28:32.811Z,89.80
2022-09-19T23:38:38.520Z,90.00
2022-09-19T23:48:44.430Z,90.18
2022-09-19T23:58:51.174Z,90.27
